Time;durP1;ratioP1;P1;durP2;ratioP2;P2;SDS_P1;SDS_P2;PMS_P1;PMS_P2;Temp;Humidity;BMP_temperature;BMP_pressure;BME280_temperature;BME280_humidity;BME280_pressure;Samples;Min_cycle;Max_cycle;Signal;HPM_P1;HPM_P2
2023/05/24 00:00:30;;;;;;;5.80;4.60;;;;;;;;;;2088963;28;20605;-69
2023/05/24 00:01:49;;;;;;;4.63;4.30;;;;;;;;;;2095500;28;20029;-70
2023/05/24 00:03:08;;;;;;;4.75;4.35;;;;;;;;;;2092061;28;20430;-70
2023/05/24 00:04:28;;;;;;;5.15;4.72;;;;;;;;;;2089711;28;20051;-69
2023/05/24 00:05:48;;;;;;;6.47;4.53;;;;;;;;;;2090307;28;20028;-69
2023/05/24 00:07:07;;;;;;;5.28;4.78;;;;;;;;;;2090198;28;20048;-69
2023/05/24 00:08:25;;;;;;;8.05;5.05;;;;;;;;;;2090757;28;20025;-69
2023/05/24 00:09:44;;;;;;;8.05;5.00;;;;;;;;;;2092059;28;20386;-70
2023/05/24 00:11:03;;;;;;;5.80;5.00;;;;;;;;;;2089283;28;20029;-69
2023/05/24 00:12:22;;;;;;;7.15;4.85;;;;;;;;;;2092528;28;20032;-69
2023/05/24 00:13:41;;;;;;;6.78;5.47;;;;;;;;;;2087549;28;20109;-68
2023/05/24 00:15:00;;;;;;;7.03;4.97;;;;;;;;;;2091472;28;20017;-69
2023/05/24 00:16:19;;;;;;;9.23;5.30;;;;;;;;;;2094242;28;20029;-69
2023/05/24 00:17:41;;;;;;;7.50;5.38;;;;;;;;;;2093574;28;20028;-68
2023/05/24 00:19:00;;;;;;;7.82;5.40;;;;;;;;;;2088773;28;20029;-69
2023/05/24 00:20:19;;;;;;;6.18;5.40;;;;;;;;;;2089755;28;20025;-69
2023/05/24 00:21:38;;;;;;;8.65;5.28;;;;;;;;;;2088957;28;20132;-69
2023/05/24 00:22:57;;;;;;;5.40;4.97;;;;;;;;;;2093437;28;20029;-68
2023/05/24 00:24:16;;;;;;;5.68;4.80;;;;;;;;;;2091853;28;20032;-68
2023/05/24 00:25:35;;;;;;;5.88;4.97;;;;;;;;;;2089174;28;20025;-71
2023/05/24 00:26:54;;;;;;;8.90;5.13;;;;;;;;;;2091860;28;20075;-69
2023/05/24 00:28:13;;;;;;;7.22;5.43;;;;;;;;;;2085529;28;20526;-70
2023/05/24 00:29:32;;;;;;;8.98;5.22;;;;;;;;;;2089303;28;20033;-69
2023/05/24 00:30:51;;;;;;;7.65;5.68;;;;;;;;;;2089386;28;20032;-69
2023/05/24 00:32:10;;;;;;;6.43;5.32;;;;;;;;;;2093744;28;20021;-69
2023/05/24 00:33:29;;;;;;;10.35;5.65;;;;;;;;;;2088517;28;20436;-69
2023/05/24 00:34:48;;;;;;;7.97;5.03;;;;;;;;;;2093960;28;20070;-69
2023/05/24 00:36:07;;;;;;;5.63;5.13;;;;;;;;;;2092376;28;20045;-69
2023/05/24 00:37:26;;;;;;;5.40;4.65;;;;;;;;;;2094203;28;20033;-69
2023/05/24 00:38:45;;;;;;;6.70;5.20;;;;;;;;;;2092802;28;20505;-69
2023/05/24 00:40:05;;;;;;;5.75;4.80;;;;;;;;;;2092424;28;20040;-69
2023/05/24 00:41:25;;;;;;;11.80;6.00;;;;;;;;;;2093132;28;20028;-68
2023/05/24 00:42:44;;;;;;;11.02;5.65;;;;;;;;;;2093430;28;20152;-69
2023/05/24 00:44:03;;;;;;;14.77;6.00;;;;;;;;;;2092047;28;20033;-69
2023/05/24 00:45:22;;;;;;;9.95;6.00;;;;;;;;;;2092226;28;20028;-69
2023/05/24 00:46:41;;;;;;;10.77;5.35;;;;;;;;;;2086713;28;20143;-71
2023/05/24 00:48:00;;;;;;;14.30;6.07;;;;;;;;;;2092516;28;20033;-70
2023/05/24 00:49:19;;;;;;;14.80;5.93;;;;;;;;;;2092840;28;20028;-71
2023/05/24 00:50:38;;;;;;;19.85;6.53;;;;;;;;;;2093838;28;21049;-72
2023/05/24 00:51:57;;;;;;;26.58;7.30;;;;;;;;;;2092821;28;20445;-70
2023/05/24 00:53:16;;;;;;;18.98;7.07;;;;;;;;;;2094214;28;20033;-69
2023/05/24 00:54:35;;;;;;;20.85;5.72;;;;;;;;;;2091256;28;20032;-70
2023/05/24 00:55:55;;;;;;;22.58;6.78;;;;;;;;;;2095518;28;20108;-69
2023/05/24 00:57:14;;;;;;;23.40;6.15;;;;;;;;;;2092764;28;20028;-69
2023/05/24 00:58:33;;;;;;;22.52;6.57;;;;;;;;;;2090142;28;20045;-69
2023/05/24 00:59:52;;;;;;;20.67;6.75;;;;;;;;;;2090382;28;20024;-69
2023/05/24 01:01:11;;;;;;;15.85;6.35;;;;;;;;;;2092053;28;20040;-70
2023/05/24 01:02:31;;;;;;;18.25;5.57;;;;;;;;;;2094355;28;20032;-70
2023/05/24 01:03:53;;;;;;;13.23;6.28;;;;;;;;;;2089119;28;20033;-70
2023/05/24 01:05:12;;;;;;;17.52;6.43;;;;;;;;;;2094133;28;20109;-70
2023/05/24 01:06:39;;;;;;;12.93;5.70;;;;;;;;;;2091105;28;20549;-70
2023/05/24 01:08:03;;;;;;;10.35;4.82;;;;;;;;;;2093144;28;20565;-70
2023/05/24 01:09:27;;;;;;;11.50;5.47;;;;;;;;;;2090387;28;20481;-70
2023/05/24 01:10:55;;;;;;;13.30;5.80;;;;;;;;;;2088581;28;20048;-70
2023/05/24 01:12:19;;;;;;;9.02;5.13;;;;;;;;;;2092818;28;20032;-71
2023/05/24 01:13:53;;;;;;;10.73;6.10;;;;;;;;;;2098392;28;20020;-71
2023/05/24 01:15:24;;;;;;;9.13;5.63;;;;;;;;;;2088391;28;20111;-70
2023/05/24 01:16:52;;;;;;;13.40;5.93;;;;;;;;;;2089703;28;20025;-70
2023/05/24 01:18:14;;;;;;;10.35;5.60;;;;;;;;;;2091602;28;20032;-69
2023/05/24 01:19:49;;;;;;;13.52;5.88;;;;;;;;;;2091716;28;20032;-69
2023/05/24 01:21:11;;;;;;;6.78;5.38;;;;;;;;;;2090588;28;20025;-70
2023/05/24 01:22:30;;;;;;;10.23;5.75;;;;;;;;;;2088644;28;20030;-71
2023/05/24 01:24:03;;;;;;;6.15;5.57;;;;;;;;;;2089744;28;20108;-70
2023/05/24 01:25:22;;;;;;;9.27;5.57;;;;;;;;;;2094062;28;20397;-69
2023/05/24 01:26:47;;;;;;;7.10;5.47;;;;;;;;;;2089469;28;20028;-69
2023/05/24 01:28:07;;;;;;;11.23;5.65;;;;;;;;;;2090955;28;20028;-70
2023/05/24 01:29:28;;;;;;;10.40;5.15;;;;;;;;;;2089474;28;20522;-69
2023/05/24 01:30:47;;;;;;;5.72;5.25;;;;;;;;;;2089074;28;20505;-71
2023/05/24 01:32:07;;;;;;;8.98;5.45;;;;;;;;;;2091434;28;20107;-70
2023/05/24 01:33:25;;;;;;;7.05;5.18;;;;;;;;;;2089563;28;20406;-70
2023/05/24 01:34:44;;;;;;;15.32;6.03;;;;;;;;;;2089733;28;20028;-70
2023/05/24 01:36:04;;;;;;;8.60;5.32;;;;;;;;;;2093212;28;20065;-70
2023/05/24 01:37:23;;;;;;;15.05;6.18;;;;;;;;;;2084470;28;20497;-70
2023/05/24 01:38:42;;;;;;;17.25;5.95;;;;;;;;;;2090185;28;20038;-70
2023/05/24 01:40:03;;;;;;;6.30;4.90;;;;;;;;;;2091184;28;20036;-70
2023/05/24 01:41:46;;;;;;;8.70;6.15;;;;;;;;;;2094689;28;20150;-70
2023/05/24 01:43:17;;;;;;;14.80;5.70;;;;;;;;;;2093410;28;20033;-71
2023/05/24 01:44:39;;;;;;;15.07;6.55;;;;;;;;;;2088234;28;20550;-70
2023/05/24 01:46:16;;;;;;;10.00;5.47;;;;;;;;;;2091737;28;20044;-70
2023/05/24 01:47:38;;;;;;;9.10;5.95;;;;;;;;;;2091344;28;20394;-70
2023/05/24 01:49:16;;;;;;;7.95;5.45;;;;;;;;;;2086351;28;20037;-71
2023/05/24 01:50:37;;;;;;;9.45;5.45;;;;;;;;;;2090608;28;20088;-70
2023/05/24 01:52:02;;;;;;;16.02;6.30;;;;;;;;;;2088005;28;20037;-71
2023/05/24 01:53:22;;;;;;;14.48;5.97;;;;;;;;;;2091120;28;20041;-70
2023/05/24 01:54:46;;;;;;;10.27;6.45;;;;;;;;;;2091473;28;20033;-70
2023/05/24 01:56:06;;;;;;;11.48;5.45;;;;;;;;;;2090498;28;20037;-70
2023/05/24 01:57:25;;;;;;;8.23;5.63;;;;;;;;;;2090642;28;20037;-69
2023/05/24 01:58:45;;;;;;;7.97;5.53;;;;;;;;;;2090460;28;20029;-69
2023/05/24 02:00:05;;;;;;;8.45;5.85;;;;;;;;;;2089313;28;20037;-69
2023/05/24 02:01:25;;;;;;;12.18;6.72;;;;;;;;;;2096649;28;20036;-70
2023/05/24 02:02:44;;;;;;;8.88;5.72;;;;;;;;;;2095146;28;20049;-69
2023/05/24 02:04:03;;;;;;;17.35;6.40;;;;;;;;;;2091699;28;20037;-68
2023/05/24 02:05:22;;;;;;;15.38;6.93;;;;;;;;;;2091705;28;20028;-69
2023/05/24 02:06:41;;;;;;;6.57;5.45;;;;;;;;;;2092531;28;20064;-70
2023/05/24 02:08:00;;;;;;;17.80;6.28;;;;;;;;;;2091144;28;20024;-70
2023/05/24 02:09:18;;;;;;;11.18;5.95;;;;;;;;;;2084132;28;20029;-70
2023/05/24 02:10:38;;;;;;;17.27;6.35;;;;;;;;;;2093407;28;20036;-70
2023/05/24 02:11:57;;;;;;;20.10;7.07;;;;;;;;;;2094644;28;20036;-70
2023/05/24 02:13:18;;;;;;;13.05;6.05;;;;;;;;;;2088692;28;20119;-70
2023/05/24 02:14:37;;;;;;;27.17;7.40;;;;;;;;;;2085475;28;20025;-70
2023/05/24 02:15:56;;;;;;;16.33;6.05;;;;;;;;;;2086887;28;20037;-70
2023/05/24 02:17:16;;;;;;;13.13;5.75;;;;;;;;;;2093288;28;20052;-70
2023/05/24 02:18:35;;;;;;;18.75;7.18;;;;;;;;;;2088453;28;20036;-71
2023/05/24 02:19:54;;;;;;;22.48;6.80;;;;;;;;;;2084702;28;20033;-70
2023/05/24 02:21:13;;;;;;;17.17;6.35;;;;;;;;;;2088274;28;20104;-70
2023/05/24 02:22:32;;;;;;;11.13;6.97;;;;;;;;;;2093655;28;20060;-70
2023/05/24 02:23:51;;;;;;;11.00;6.57;;;;;;;;;;2092374;28;20413;-71
2023/05/24 02:25:10;;;;;;;10.70;6.95;;;;;;;;;;2089435;28;20104;-70
2023/05/24 02:26:29;;;;;;;9.73;6.78;;;;;;;;;;2089941;28;20049;-72
2023/05/24 02:27:48;;;;;;;11.55;6.30;;;;;;;;;;2096160;28;20056;-70
2023/05/24 02:29:07;;;;;;;11.80;7.22;;;;;;;;;;2091755;28;20028;-71
2023/05/24 02:30:26;;;;;;;9.50;6.00;;;;;;;;;;2088641;28;20032;-70
2023/05/24 02:31:45;;;;;;;13.63;6.30;;;;;;;;;;2096487;28;20467;-70
2023/05/24 02:33:04;;;;;;;11.25;5.68;;;;;;;;;;2095553;28;20029;-69
2023/05/24 02:34:23;;;;;;;10.27;6.05;;;;;;;;;;2091606;28;20763;-70
2023/05/24 02:35:42;;;;;;;7.88;5.72;;;;;;;;;;2089527;28;20029;-69
2023/05/24 02:37:01;;;;;;;6.70;6.00;;;;;;;;;;2091949;28;20485;-70
2023/05/24 02:38:20;;;;;;;9.85;5.72;;;;;;;;;;2090364;28;20037;-69
2023/05/24 02:39:42;;;;;;;11.00;5.65;;;;;;;;;;2086941;28;20453;-69
2023/05/24 02:41:01;;;;;;;8.35;5.97;;;;;;;;;;2092498;28;20041;-69
2023/05/24 02:42:21;;;;;;;10.88;5.75;;;;;;;;;;2090143;28;20024;-69
2023/05/24 02:43:39;;;;;;;11.35;5.90;;;;;;;;;;2091615;28;20116;-69
2023/05/24 02:44:58;;;;;;;12.82;5.65;;;;;;;;;;2090188;28;20116;-68
2023/05/24 02:46:17;;;;;;;8.32;5.68;;;;;;;;;;2094418;28;21720;-69
2023/05/24 02:47:36;;;;;;;9.57;5.30;;;;;;;;;;2094825;28;20029;-69
2023/05/24 02:48:55;;;;;;;7.53;6.00;;;;;;;;;;2089260;28;20021;-69
2023/05/24 02:50:14;;;;;;;8.32;5.70;;;;;;;;;;2093717;28;20022;-70
2023/05/24 02:51:33;;;;;;;10.65;5.63;;;;;;;;;;2088391;28;20029;-69
2023/05/24 02:52:52;;;;;;;8.88;5.25;;;;;;;;;;2091285;28;20021;-69
2023/05/24 02:54:11;;;;;;;8.45;6.00;;;;;;;;;;2093497;28;20033;-69
2023/05/24 02:55:31;;;;;;;9.63;5.60;;;;;;;;;;2094401;28;20597;-69
2023/05/24 02:56:50;;;;;;;8.55;5.43;;;;;;;;;;2090259;28;20389;-70
2023/05/24 02:58:10;;;;;;;8.20;6.00;;;;;;;;;;2092167;28;20029;-69
2023/05/24 02:59:30;;;;;;;9.27;6.10;;;;;;;;;;2091666;28;20037;-69
2023/05/24 03:00:49;;;;;;;6.65;5.70;;;;;;;;;;2089696;28;20024;-69
2023/05/24 03:02:08;;;;;;;9.18;6.30;;;;;;;;;;2091549;28;20028;-69
2023/05/24 03:03:26;;;;;;;7.18;5.03;;;;;;;;;;2093318;28;20556;-69
2023/05/24 03:04:45;;;;;;;12.88;6.15;;;;;;;;;;2087902;28;20032;-69
2023/05/24 03:06:06;;;;;;;7.07;5.10;;;;;;;;;;2092416;28;20033;-69
2023/05/24 03:07:25;;;;;;;5.80;5.03;;;;;;;;;;2095149;28;20032;-70
2023/05/24 03:08:44;;;;;;;7.18;5.68;;;;;;;;;;2090562;28;20469;-70
2023/05/24 03:10:04;;;;;;;7.28;5.47;;;;;;;;;;2093504;28;20036;-70
2023/05/24 03:11:23;;;;;;;7.10;4.90;;;;;;;;;;2093264;28;20357;-70
2023/05/24 03:12:42;;;;;;;5.88;5.18;;;;;;;;;;2093000;28;20032;-69
2023/05/24 03:14:01;;;;;;;6.18;5.68;;;;;;;;;;2086682;28;20028;-69
2023/05/24 03:15:20;;;;;;;6.88;5.35;;;;;;;;;;2086956;28;20021;-70
2023/05/24 03:16:39;;;;;;;10.23;5.45;;;;;;;;;;2089997;28;20410;-69
2023/05/24 03:17:58;;;;;;;8.55;5.72;;;;;;;;;;2091575;28;20507;-69
2023/05/24 03:19:17;;;;;;;6.15;5.05;;;;;;;;;;2090396;28;20037;-69
2023/05/24 03:20:36;;;;;;;7.10;5.85;;;;;;;;;;2090616;28;20024;-69
2023/05/24 03:21:55;;;;;;;9.18;5.82;;;;;;;;;;2089872;28;20079;-69
2023/05/24 03:23:14;;;;;;;6.50;5.90;;;;;;;;;;2091731;28;20020;-69
2023/05/24 03:24:33;;;;;;;6.15;5.65;;;;;;;;;;2093058;28;20390;-69
2023/05/24 03:25:52;;;;;;;6.03;5.43;;;;;;;;;;2094514;28;20060;-69
2023/05/24 03:27:11;;;;;;;8.35;6.35;;;;;;;;;;2095161;28;20026;-69
2023/05/24 03:28:30;;;;;;;6.57;5.93;;;;;;;;;;2091389;28;20389;-72
2023/05/24 03:29:49;;;;;;;6.93;5.95;;;;;;;;;;2091036;28;20515;-69
2023/05/24 03:31:08;;;;;;;7.32;6.55;;;;;;;;;;2090677;28;20103;-69
2023/05/24 03:32:27;;;;;;;7.63;6.25;;;;;;;;;;2089836;28;20058;-69
2023/05/24 03:33:46;;;;;;;6.32;5.72;;;;;;;;;;2095160;28;20470;-70
2023/05/24 03:35:05;;;;;;;7.07;6.45;;;;;;;;;;2091874;28;20064;-69
2023/05/24 03:36:25;;;;;;;6.75;6.05;;;;;;;;;;2092113;28;20033;-69
2023/05/24 03:37:43;;;;;;;6.40;5.82;;;;;;;;;;2090234;28;20916;-69
2023/05/24 03:39:03;;;;;;;8.73;5.97;;;;;;;;;;2088617;28;20028;-69
2023/05/24 03:40:24;;;;;;;9.10;6.18;;;;;;;;;;2090703;28;20447;-69
2023/05/24 03:41:43;;;;;;;6.70;6.05;;;;;;;;;;2092957;28;20025;-68
2023/05/24 03:43:02;;;;;;;6.55;6.07;;;;;;;;;;2089132;28;20024;-69
2023/05/24 03:44:20;;;;;;;7.95;6.28;;;;;;;;;;2093578;28;20717;-69
2023/05/24 03:45:39;;;;;;;7.25;6.18;;;;;;;;;;2092786;28;20029;-69
2023/05/24 03:46:58;;;;;;;7.78;5.95;;;;;;;;;;2091835;28;20028;-70
2023/05/24 03:48:19;;;;;;;10.25;6.47;;;;;;;;;;2091624;28;20024;-70
2023/05/24 03:49:38;;;;;;;6.65;5.95;;;;;;;;;;2089863;28;20025;-70
2023/05/24 03:50:57;;;;;;;8.38;6.40;;;;;;;;;;2092482;28;20024;-69
2023/05/24 03:52:16;;;;;;;7.95;6.40;;;;;;;;;;2092016;28;20439;-70
2023/05/24 03:53:35;;;;;;;7.10;6.53;;;;;;;;;;2095570;28;20425;-70
2023/05/24 03:54:54;;;;;;;8.48;6.90;;;;;;;;;;2087935;28;20029;-69
2023/05/24 03:56:13;;;;;;;6.97;6.25;;;;;;;;;;2084694;28;20029;-70
2023/05/24 03:57:32;;;;;;;8.65;6.45;;;;;;;;;;2086668;28;20116;-69
2023/05/24 03:58:51;;;;;;;7.80;7.00;;;;;;;;;;2085574;28;20037;-70
2023/05/24 04:00:11;;;;;;;13.18;6.45;;;;;;;;;;2091583;28;20032;-70
2023/05/24 04:01:30;;;;;;;9.23;5.95;;;;;;;;;;2090145;28;20381;-69
2023/05/24 04:02:49;;;;;;;8.40;7.20;;;;;;;;;;2093411;28;20024;-69
2023/05/24 04:04:08;;;;;;;11.73;6.43;;;;;;;;;;2090495;28;20025;-70
2023/05/24 04:05:28;;;;;;;10.55;6.70;;;;;;;;;;2092453;28;20099;-69
2023/05/24 04:06:48;;;;;;;7.25;6.07;;;;;;;;;;2086140;28;20425;-69
2023/05/24 04:08:07;;;;;;;7.95;6.25;;;;;;;;;;2092002;28;20028;-70
2023/05/24 04:09:26;;;;;;;10.07;6.65;;;;;;;;;;2090273;28;20032;-70
2023/05/24 04:10:45;;;;;;;9.07;6.90;;;;;;;;;;2091576;28;20036;-69
2023/05/24 04:12:05;;;;;;;10.93;6.53;;;;;;;;;;2084976;28;20033;-68
2023/05/24 04:13:24;;;;;;;9.80;6.80;;;;;;;;;;2089094;28;20029;-68
2023/05/24 04:14:43;;;;;;;10.13;6.50;;;;;;;;;;2088887;28;20115;-69
2023/05/24 04:16:03;;;;;;;8.48;6.50;;;;;;;;;;2087656;28;20025;-69
2023/05/24 04:17:23;;;;;;;7.10;6.10;;;;;;;;;;2089540;28;20065;-69
2023/05/24 04:18:44;;;;;;;8.57;6.85;;;;;;;;;;2091283;28;20047;-68
2023/05/24 04:20:04;;;;;;;9.63;7.45;;;;;;;;;;2092355;28;20028;-69
2023/05/24 04:21:23;;;;;;;10.55;6.90;;;;;;;;;;2089781;28;20033;-69
2023/05/24 04:22:42;;;;;;;9.40;6.90;;;;;;;;;;2088267;28;20119;-69
2023/05/24 04:24:02;;;;;;;10.45;6.55;;;;;;;;;;2087130;28;20033;-68
2023/05/24 04:25:21;;;;;;;7.35;6.75;;;;;;;;;;2090785;28;20041;-69
2023/05/24 04:26:40;;;;;;;9.35;6.72;;;;;;;;;;2089513;28;20414;-69
2023/05/24 04:27:59;;;;;;;6.65;6.03;;;;;;;;;;2085478;28;20016;-68
2023/05/24 04:29:18;;;;;;;9.00;5.82;;;;;;;;;;2092310;28;20033;-68
2023/05/24 04:30:38;;;;;;;11.13;6.75;;;;;;;;;;2089603;28;20017;-69
2023/05/24 04:31:59;;;;;;;8.15;6.93;;;;;;;;;;2091950;28;20029;-69
2023/05/24 04:33:18;;;;;;;11.30;6.05;;;;;;;;;;2088419;28;20028;-68
2023/05/24 04:34:41;;;;;;;7.22;6.05;;;;;;;;;;2090538;28;20020;-69
2023/05/24 04:36:00;;;;;;;7.88;6.70;;;;;;;;;;2091468;28;20041;-71
2023/05/24 04:37:19;;;;;;;9.75;6.78;;;;;;;;;;2087824;28;20025;-69
2023/05/24 04:38:39;;;;;;;10.93;5.65;;;;;;;;;;2086142;28;20490;-69
2023/05/24 04:39:58;;;;;;;8.95;4.07;;;;;;;;;;2086575;28;20040;-66
2023/05/24 04:41:17;;;;;;;6.15;5.20;;;;;;;;;;2090225;28;20526;-68
2023/05/24 04:42:36;;;;;;;12.48;4.40;;;;;;;;;;2095105;28;20032;-68
2023/05/24 04:43:55;;;;;;;6.80;5.18;;;;;;;;;;2089708;28;20025;-68
2023/05/24 04:45:14;;;;;;;10.23;5.38;;;;;;;;;;2085850;28;20032;-68
2023/05/24 04:46:34;;;;;;;11.60;5.57;;;;;;;;;;2087434;28;20124;-67
2023/05/24 04:47:53;;;;;;;10.35;5.85;;;;;;;;;;2088613;28;20033;-69
2023/05/24 04:49:12;;;;;;;7.68;4.45;;;;;;;;;;2087431;28;20482;-68
2023/05/24 04:50:31;;;;;;;9.02;5.18;;;;;;;;;;2090510;28;20033;-69
2023/05/24 04:51:50;;;;;;;6.43;4.70;;;;;;;;;;2095589;28;20047;-69
2023/05/24 04:53:09;;;;;;;9.00;5.18;;;;;;;;;;2092020;28;20152;-69
2023/05/24 04:54:28;;;;;;;12.75;5.18;;;;;;;;;;2089993;28;20485;-69
2023/05/24 04:55:48;;;;;;;10.95;5.20;;;;;;;;;;2088525;28;20068;-68
2023/05/24 04:57:07;;;;;;;10.35;5.50;;;;;;;;;;2089103;28;20041;-69
2023/05/24 04:58:26;;;;;;;5.35;4.82;;;;;;;;;;2090112;28;20032;-68
2023/05/24 04:59:45;;;;;;;6.20;5.65;;;;;;;;;;2090252;28;20482;-69
2023/05/24 05:01:04;;;;;;;10.25;5.28;;;;;;;;;;2085185;28;20045;-68
2023/05/24 05:02:25;;;;;;;3.90;3.60;;;;;;;;;;2086562;28;20028;-69
2023/05/24 05:03:44;;;;;;;8.57;4.40;;;;;;;;;;2091337;28;20029;-68
2023/05/24 05:05:04;;;;;;;13.52;5.20;;;;;;;;;;2088559;28;20037;-70
2023/05/24 05:06:23;;;;;;;5.47;4.72;;;;;;;;;;2085734;28;20085;-68
2023/05/24 05:07:42;;;;;;;8.13;5.10;;;;;;;;;;2089555;28;20016;-70
2023/05/24 05:09:01;;;;;;;8.98;4.80;;;;;;;;;;2088932;28;20113;-69
2023/05/24 05:10:20;;;;;;;6.97;4.28;;;;;;;;;;2086747;28;20033;-69
2023/05/24 05:11:39;;;;;;;10.60;4.38;;;;;;;;;;2080561;28;20037;-68
2023/05/24 05:12:58;;;;;;;4.78;3.88;;;;;;;;;;2084754;28;20403;-69
2023/05/24 05:14:17;;;;;;;10.85;5.10;;;;;;;;;;2092032;28;20095;-68
2023/05/24 05:15:36;;;;;;;9.95;4.53;;;;;;;;;;2083034;28;20060;-69
2023/05/24 05:16:55;;;;;;;11.85;4.68;;;;;;;;;;2085274;28;20053;-68
2023/05/24 05:18:15;;;;;;;4.10;3.50;;;;;;;;;;2086192;28;20033;-68
2023/05/24 05:19:34;;;;;;;5.18;3.45;;;;;;;;;;2088393;28;20029;-68
2023/05/24 05:20:53;;;;;;;6.18;3.67;;;;;;;;;;2087901;28;21187;-66
2023/05/24 05:22:12;;;;;;;6.38;3.92;;;;;;;;;;2083915;28;20016;-66
2023/05/24 05:23:31;;;;;;;8.65;4.75;;;;;;;;;;2085245;28;20025;-67
2023/05/24 05:24:50;;;;;;;8.32;4.15;;;;;;;;;;2088505;28;20910;-66
2023/05/24 05:26:10;;;;;;;7.20;4.22;;;;;;;;;;2092713;28;20083;-67
2023/05/24 05:27:29;;;;;;;9.32;4.38;;;;;;;;;;2089686;28;20013;-66
2023/05/24 05:28:48;;;;;;;8.55;4.80;;;;;;;;;;2090658;28;20220;-66
2023/05/24 05:30:07;;;;;;;10.05;4.32;;;;;;;;;;2090694;28;20020;-66
2023/05/24 05:31:26;;;;;;;7.88;3.95;;;;;;;;;;2091417;28;20154;-66
2023/05/24 05:32:45;;;;;;;11.38;5.05;;;;;;;;;;2090728;28;20445;-65
2023/05/24 05:34:08;;;;;;;8.45;4.07;;;;;;;;;;2091269;28;20041;-66
2023/05/24 05:35:27;;;;;;;6.68;5.13;;;;;;;;;;2092205;28;20024;-66
2023/05/24 05:36:46;;;;;;;7.80;4.00;;;;;;;;;;2092449;28;20101;-66
2023/05/24 05:38:05;;;;;;;9.35;3.75;;;;;;;;;;2091359;28;20104;-66
2023/05/24 05:39:24;;;;;;;6.00;3.42;;;;;;;;;;2091291;28;20033;-66
2023/05/24 05:40:43;;;;;;;6.30;4.07;;;;;;;;;;2089018;28;20012;-66
2023/05/24 05:42:02;;;;;;;9.32;4.43;;;;;;;;;;2088064;28;20761;-67
2023/05/24 05:43:21;;;;;;;10.85;4.03;;;;;;;;;;2092073;28;20153;-67
2023/05/24 05:44:40;;;;;;;7.63;3.97;;;;;;;;;;2087940;28;20029;-67
2023/05/24 05:45:59;;;;;;;12.90;4.18;;;;;;;;;;2089206;28;20029;-67
2023/05/24 05:47:18;;;;;;;11.32;4.53;;;;;;;;;;2086679;28;20028;-65
2023/05/24 05:48:37;;;;;;;8.02;3.92;;;;;;;;;;2088320;28;20385;-67
2023/05/24 05:49:56;;;;;;;6.85;3.60;;;;;;;;;;2089627;28;20021;-67
2023/05/24 05:51:15;;;;;;;5.85;3.47;;;;;;;;;;2090794;28;20032;-67
2023/05/24 05:52:34;;;;;;;6.72;3.40;;;;;;;;;;2088908;28;20056;-67
2023/05/24 05:53:53;;;;;;;11.63;3.65;;;;;;;;;;2088712;28;20389;-67
2023/05/24 05:55:12;;;;;;;3.60;3.30;;;;;;;;;;2087925;28;20152;-67
2023/05/24 05:56:31;;;;;;;8.23;3.50;;;;;;;;;;2092597;28;20493;-67
2023/05/24 05:57:50;;;;;;;8.10;3.75;;;;;;;;;;2090002;28;20119;-67
2023/05/24 05:59:09;;;;;;;7.22;4.05;;;;;;;;;;2090063;28;20041;-67
2023/05/24 06:00:28;;;;;;;9.52;3.72;;;;;;;;;;2094149;28;20122;-67
2023/05/24 06:01:47;;;;;;;7.95;3.47;;;;;;;;;;2094616;28;20029;-67
2023/05/24 06:03:06;;;;;;;10.30;4.00;;;;;;;;;;2094969;28;20493;-68
2023/05/24 06:04:25;;;;;;;5.65;3.90;;;;;;;;;;2093553;28;20055;-67
2023/05/24 06:05:44;;;;;;;8.95;3.33;;;;;;;;;;2093374;28;20517;-67
2023/05/24 06:07:03;;;;;;;7.97;3.47;;;;;;;;;;2094181;28;20048;-67
2023/05/24 06:08:22;;;;;;;5.60;3.53;;;;;;;;;;2093110;28;20044;-62
2023/05/24 06:09:41;;;;;;;10.13;3.45;;;;;;;;;;2092690;28;20029;-62
2023/05/24 06:11:00;;;;;;;4.45;3.22;;;;;;;;;;2091189;28;20032;-62
2023/05/24 06:12:19;;;;;;;7.53;4.05;;;;;;;;;;2095291;28;20021;-62
2023/05/24 06:13:38;;;;;;;13.90;3.58;;;;;;;;;;2094844;28;20403;-61
2023/05/24 06:14:58;;;;;;;15.25;3.90;;;;;;;;;;2093724;28;20021;-62
2023/05/24 06:16:17;;;;;;;8.20;3.63;;;;;;;;;;2093088;28;20033;-62
2023/05/24 06:17:36;;;;;;;8.23;3.45;;;;;;;;;;2092205;28;20029;-62
2023/05/24 06:18:55;;;;;;;8.40;3.45;;;;;;;;;;2086126;28;20103;-62
2023/05/24 06:20:15;;;;;;;3.88;3.10;;;;;;;;;;2092322;28;20024;-62
2023/05/24 06:21:35;;;;;;;10.02;3.17;;;;;;;;;;2094446;28;20108;-62
2023/05/24 06:22:55;;;;;;;8.15;3.40;;;;;;;;;;2092267;28;20033;-62
2023/05/24 06:24:16;;;;;;;5.22;3.80;;;;;;;;;;2094805;28;20064;-63
2023/05/24 06:25:37;;;;;;;5.38;3.63;;;;;;;;;;2092965;28;20037;-62
2023/05/24 06:26:56;;;;;;;7.63;3.80;;;;;;;;;;2095274;28;20029;-62
2023/05/24 06:28:15;;;;;;;10.65;3.63;;;;;;;;;;2095229;28;20056;-62
2023/05/24 06:29:34;;;;;;;3.67;3.35;;;;;;;;;;2093991;28;20396;-70
2023/05/24 06:30:53;;;;;;;5.63;3.30;;;;;;;;;;2094262;28;20485;-70
2023/05/24 06:32:12;;;;;;;4.63;2.70;;;;;;;;;;2094435;28;20024;-70
2023/05/24 06:33:31;;;;;;;5.00;2.70;;;;;;;;;;2093268;28;20025;-70
2023/05/24 06:34:50;;;;;;;5.38;3.03;;;;;;;;;;2093604;28;20445;-70
2023/05/24 06:36:09;;;;;;;4.72;3.17;;;;;;;;;;2093836;28;20028;-70
2023/05/24 06:37:29;;;;;;;6.45;3.20;;;;;;;;;;2092657;28;20443;-70
2023/05/24 06:38:48;;;;;;;5.38;3.03;;;;;;;;;;2093154;28;20495;-70
2023/05/24 06:40:08;;;;;;;5.07;3.28;;;;;;;;;;2092037;28;20036;-70
2023/05/24 06:41:27;;;;;;;4.60;3.08;;;;;;;;;;2088887;28;20067;-72
2023/05/24 06:42:46;;;;;;;8.75;3.20;;;;;;;;;;2088101;28;20037;-70
2023/05/24 06:44:05;;;;;;;12.55;3.42;;;;;;;;;;2095129;28;20115;-71
2023/05/24 06:45:24;;;;;;;5.45;2.95;;;;;;;;;;2090753;28;20064;-70
2023/05/24 06:46:44;;;;;;;8.13;3.33;;;;;;;;;;2092863;28;20067;-72
2023/05/24 06:48:03;;;;;;;4.28;2.80;;;;;;;;;;2091900;28;20029;-70
2023/05/24 06:49:22;;;;;;;5.68;3.15;;;;;;;;;;2087609;28;20510;-71
2023/05/24 06:50:41;;;;;;;6.43;2.70;;;;;;;;;;2095153;28;20024;-70
2023/05/24 06:52:00;;;;;;;7.05;3.20;;;;;;;;;;2091717;28;20124;-70
2023/05/24 06:53:19;;;;;;;7.78;3.05;;;;;;;;;;2092135;28;20021;-70
2023/05/24 06:54:38;;;;;;;3.60;2.72;;;;;;;;;;2091121;28;20029;-71
2023/05/24 06:55:57;;;;;;;4.72;3.00;;;;;;;;;;2093667;28;20501;-71
2023/05/24 06:57:15;;;;;;;4.18;2.70;;;;;;;;;;2091066;28;20119;-70
2023/05/24 06:58:35;;;;;;;6.50;3.03;;;;;;;;;;2093358;28;20439;-70
2023/05/24 06:59:54;;;;;;;2.85;2.47;;;;;;;;;;2091291;28;20032;-70
2023/05/24 07:01:13;;;;;;;5.47;2.90;;;;;;;;;;2092137;28;20020;-70
2023/05/24 07:02:32;;;;;;;6.10;3.22;;;;;;;;;;2093996;28;20037;-70
2023/05/24 07:03:50;;;;;;;5.75;2.70;;;;;;;;;;2093000;28;20040;-71
2023/05/24 07:05:12;;;;;;;3.83;3.30;;;;;;;;;;2093529;28;20025;-70
2023/05/24 07:06:32;;;;;;;2.78;2.58;;;;;;;;;;2089946;28;20451;-70
2023/05/24 07:07:51;;;;;;;3.17;2.90;;;;;;;;;;2091000;28;20478;-71
2023/05/24 07:09:10;;;;;;;3.58;2.60;;;;;;;;;;2090822;28;20448;-70
2023/05/24 07:10:29;;;;;;;6.53;3.10;;;;;;;;;;2091489;28;20045;-69
2023/05/24 07:11:48;;;;;;;3.08;2.78;;;;;;;;;;2089218;28;20510;-70
2023/05/24 07:13:08;;;;;;;5.72;2.72;;;;;;;;;;2091008;28;20359;-70
2023/05/24 07:14:27;;;;;;;7.95;3.00;;;;;;;;;;2092059;28;20033;-70
2023/05/24 07:15:49;;;;;;;3.33;2.92;;;;;;;;;;2090562;28;20025;-70
2023/05/24 07:17:08;;;;;;;6.05;2.65;;;;;;;;;;2091002;28;20029;-70
2023/05/24 07:18:26;;;;;;;2.95;2.75;;;;;;;;;;2095164;28;20025;-70
2023/05/24 07:19:45;;;;;;;4.90;2.10;;;;;;;;;;2093796;28;20037;-70
2023/05/24 07:21:04;;;;;;;3.65;2.47;;;;;;;;;;2089099;28;20413;-70
2023/05/24 07:22:26;;;;;;;4.95;2.55;;;;;;;;;;2092363;28;20041;-70
2023/05/24 07:23:44;;;;;;;4.55;2.88;;;;;;;;;;2092893;28;20028;-71
2023/05/24 07:25:04;;;;;;;2.97;2.75;;;;;;;;;;2095185;28;20040;-70
2023/05/24 07:26:23;;;;;;;3.72;2.50;;;;;;;;;;2093999;28;20045;-71
2023/05/24 07:27:42;;;;;;;3.63;2.53;;;;;;;;;;2092712;28;20433;-71
2023/05/24 07:29:01;;;;;;;8.02;2.53;;;;;;;;;;2092849;28;20032;-70
2023/05/24 07:30:20;;;;;;;7.13;2.80;;;;;;;;;;2093612;28;20033;-69
2023/05/24 07:31:39;;;;;;;5.75;2.63;;;;;;;;;;2093826;28;20017;-71
2023/05/24 07:32:58;;;;;;;5.35;2.75;;;;;;;;;;2090261;28;20028;-70
2023/05/24 07:34:19;;;;;;;6.95;2.70;;;;;;;;;;2090271;28;20444;-71
2023/05/24 07:35:39;;;;;;;8.20;3.28;;;;;;;;;;2089299;28;20412;-70
2023/05/24 07:36:59;;;;;;;6.85;3.25;;;;;;;;;;2089387;28;20032;-70
2023/05/24 07:38:18;;;;;;;5.13;3.10;;;;;;;;;;2090412;28;20033;-71
2023/05/24 07:39:37;;;;;;;7.22;3.30;;;;;;;;;;2088577;28;20428;-71
2023/05/24 07:41:02;;;;;;;2.90;2.67;;;;;;;;;;2092952;28;20032;-70
2023/05/24 07:42:20;;;;;;;3.60;2.88;;;;;;;;;;2091797;28;20034;-70
2023/05/24 07:43:39;;;;;;;4.78;2.80;;;;;;;;;;2092796;28;20033;-71
2023/05/24 07:44:58;;;;;;;4.50;2.97;;;;;;;;;;2092409;28;20028;-70
2023/05/24 07:46:17;;;;;;;9.02;2.80;;;;;;;;;;2087084;28;20029;-70
2023/05/24 07:47:37;;;;;;;8.23;3.03;;;;;;;;;;2091375;28;20033;-71
2023/05/24 07:48:56;;;;;;;3.75;2.80;;;;;;;;;;2092095;28;20028;-69
2023/05/24 07:50:15;;;;;;;8.18;2.92;;;;;;;;;;2093155;28;20028;-70
2023/05/24 07:51:35;;;;;;;7.13;3.00;;;;;;;;;;2094170;28;20032;-70
2023/05/24 07:52:57;;;;;;;6.47;2.60;;;;;;;;;;2093053;28;20032;-69
2023/05/24 07:54:16;;;;;;;9.75;3.28;;;;;;;;;;2092093;28;20025;-71
2023/05/24 07:55:35;;;;;;;13.23;3.92;;;;;;;;;;2091918;28;20030;-69